Prineville, OR (97754)

8:15 PM PST on December 07, 2016 (GMT -0800)
Hidden Springs Sub. | | Change Station
Active Advisory: Winter Weather Advisory

Elev 2881 ft 44.30 °N, 120.83 °W | Updated 2 seconds ago

Partly Cloudy
Partly Cloudy
19.2 °F
Feels Like 19 °F
N
0.0
Wind Variable Wind from SE
Gusts 0.0 mph

Today
High -- | Low -- °F
--% Chance of Precip.
Yesterday
High -- | Low -- °F
Precip. -- in
Pressure 30.36 in
Visibility 10.0 miles
Clouds Clear
Windchill 19 °F
Dew Point 12 °F
Humidity 75%
Rainfall 0.00 in
Snow Depth Not available.
7:25 AM 4:24 PM
First Quarter, 59% visible
METAR KRDM 080356Z AUTO 30005KT 10SM CLR M08/M10 A3021 RMK AO2 SLP279 T10781100
Pressure 30.36 in
Visibility 10.0 miles
Clouds Clear
Windchill 19 °F
Dew Point 12 °F
Humidity 75%
Rainfall 0.00 in
Snow Depth Not available.
7:25 AM 4:24 PM
First Quarter, 59% visible
METAR KRDM 080356Z AUTO 30005KT 10SM CLR M08/M10 A3021 RMK AO2 SLP279 T10781100

10-Day Weather Forecast

Almanac

Astronomy

Dec. 07, 2016 Rise Set
Actual Time
Civil Twilight
Nautical Twilight
Astronomical Twilight
Moon
Length of Visible Light
Length of Day
Tomorrow will be .
, % of the Moon is Illuminated

Today's Extremes

State Highs State Lows

Community

WunderPhotos

Upload Photos

1,956,259 photos uploaded!

WunderBlog® & News

Nearby

Air Quality

  Air Quality AQ Index Pollutant
Not available.

Snow Depth

Station Depth Elevation

Earthquake Activity

City Distance Mag. Time & Date
Minimum magnitude displayed is 2.5.

Coastal Water Temperatures

Place Temperature

Stations

Nearby Weather Stations

Station Location Temp. Windchill Dew Point Humidity Wind Precip. Elev Updated Type
                   

Watches & Warnings

Winter Weather Advisory
Issued: 2:57 PM PST Dec. 7, 2016 – National Weather Service

... Winter Weather Advisory in effect from 4 am to 10 PM PST
Thursday...

The National Weather Service in Pendleton has issued a Winter
Weather Advisory for snow... sleet... and freezing rain... which is
in effect from 4 am to 10 PM PST Thursday.

* Locations... Bend... Madras... Prineville... Redmond.

* Ice accumulations... less than a tenth of an inch.

* Snow accumulations... 3 to 4 inches.

* Timing... light snow will develop by sunrise Thursday morning
then increase in intensity during the day. There will be light
freezing rain or sleet before precipitation changes to rain
Thursday evening.

* Impacts... area roadways will be snow covered and slick.

* Winds... southwest winds 10 to 15 mph may cause local blowing and
drifting of snow.

* Snow level... snow levels will gradually rise during the day and
will be near 4000 feet Thursday evening.

* Web page: for a detailed view of the hazard area visit
http://www.Wrh.NOAA.Gov/map/?Wfo=pdt.

Precautionary/preparedness actions...

A Winter Weather Advisory for snow means that periods of snow
will cause primarily travel difficulties. Be prepared for snow
covered roads and limited visibilities... and use caution while
driving.